sensor_id;sensor_type;location;lat;lon;timestamp;pressure;altitude;pressure_sealevel;temperature;humidity
52797;BME280;38666;43.348;12.584;2022-07-06T06:56:38;95887.94;;;25.99;45.09
52797;BME280;38666;43.348;12.584;2022-07-06T06:59:03;95881.69;;;26.16;43.99
52797;BME280;38666;43.348;12.584;2022-07-06T07:01:29;95895.53;;;26.37;44.15
52797;BME280;38666;43.348;12.584;2022-07-06T07:03:55;95889.94;;;26.37;44.26
52797;BME280;38666;43.348;12.584;2022-07-06T07:06:21;95883.91;;;26.50;44.33
52797;BME280;38666;43.348;12.584;2022-07-06T07:08:46;95886.69;;;26.55;43.77
52797;BME280;38666;43.348;12.584;2022-07-06T07:11:12;95897.25;;;26.34;44.64
52797;BME280;38666;43.348;12.584;2022-07-06T07:13:37;95896.81;;;26.41;44.22
52797;BME280;38666;43.348;12.584;2022-07-06T07:16:03;95896.63;;;26.56;43.69
52797;BME280;38666;43.348;12.584;2022-07-06T07:18:28;95897.19;;;26.72;43.17
52797;BME280;38666;43.348;12.584;2022-07-06T07:20:54;95899.03;;;26.87;43.07
52797;BME280;38666;43.348;12.584;2022-07-06T07:23:19;95902.63;;;26.99;42.92
52797;BME280;38666;43.348;12.584;2022-07-06T07:25:45;95901.16;;;27.15;42.08
52797;BME280;38666;43.348;12.584;2022-07-06T07:28:10;95906.25;;;27.34;41.47
52797;BME280;38666;43.348;12.584;2022-07-06T07:30:36;95900.38;;;27.20;42.42
52797;BME280;38666;43.348;12.584;2022-07-06T07:33:01;95905.25;;;27.31;41.82
52797;BME280;38666;43.348;12.584;2022-07-06T07:35:27;95906.03;;;27.32;41.69
52797;BME280;38666;43.348;12.584;2022-07-06T07:37:53;95897.09;;;27.45;41.67
52797;BME280;38666;43.348;12.584;2022-07-06T07:40:18;95900.16;;;27.47;41.92
52797;BME280;38666;43.348;12.584;2022-07-06T07:42:43;95892.00;;;27.78;41.58
52797;BME280;38666;43.348;12.584;2022-07-06T07:45:11;95903.47;;;27.68;41.69
52797;BME280;38666;43.348;12.584;2022-07-06T07:47:36;95907.56;;;27.90;40.54
52797;BME280;38666;43.348;12.584;2022-07-06T07:50:02;95898.09;;;27.87;41.10
52797;BME280;38666;43.348;12.584;2022-07-06T07:52:27;95908.03;;;28.00;40.48
52797;BME280;38666;43.348;12.584;2022-07-06T07:54:53;95911.84;;;28.14;40.48
52797;BME280;38666;43.348;12.584;2022-07-06T07:57:18;95912.91;;;27.88;41.55
52797;BME280;38666;43.348;12.584;2022-07-06T07:59:44;95912.09;;;28.16;40.71
52797;BME280;38666;43.348;12.584;2022-07-06T08:02:10;95911.56;;;28.23;40.34
52797;BME280;38666;43.348;12.584;2022-07-06T08:04:36;95922.06;;;28.06;40.97
52797;BME280;38666;43.348;12.584;2022-07-06T08:07:01;95918.25;;;27.97;41.10
52797;BME280;38666;43.348;12.584;2022-07-06T08:09:27;95914.72;;;27.80;41.60
52797;BME280;38666;43.348;12.584;2022-07-06T08:11:52;95904.44;;;28.11;41.02
52797;BME280;38666;43.348;12.584;2022-07-06T08:14:18;95913.59;;;28.40;38.84
52797;BME280;38666;43.348;12.584;2022-07-06T08:16:43;95904.13;;;28.43;38.99
52797;BME280;38666;43.348;12.584;2022-07-06T08:19:09;95897.88;;;28.74;38.68
52797;BME280;38666;43.348;12.584;2022-07-06T08:21:39;95897.09;;;28.79;37.20
52797;BME280;38666;43.348;12.584;2022-07-06T08:24:05;95892.72;;;28.78;37.31
52797;BME280;38666;43.348;12.584;2022-07-06T08:26:30;95898.72;;;29.11;36.62
52797;BME280;38666;43.348;12.584;2022-07-06T08:28:56;95896.44;;;28.98;36.29
52797;BME280;38666;43.348;12.584;2022-07-06T08:31:21;95897.22;;;28.98;35.90
52797;BME280;38666;43.348;12.584;2022-07-06T08:33:47;95899.94;;;29.15;35.89
52797;BME280;38666;43.348;12.584;2022-07-06T08:36:14;95898.22;;;29.06;36.36
52797;BME280;38666;43.348;12.584;2022-07-06T08:38:39;95895.88;;;29.16;36.32
52797;BME280;38666;43.348;12.584;2022-07-06T08:41:05;95894.31;;;29.15;36.88
52797;BME280;38666;43.348;12.584;2022-07-06T08:43:33;95891.28;;;29.13;36.33
52797;BME280;38666;43.348;12.584;2022-07-06T08:46:00;95894.19;;;29.38;35.41
52797;BME280;38666;43.348;12.584;2022-07-06T08:48:27;95889.19;;;29.56;35.22
52797;BME280;38666;43.348;12.584;2022-07-06T08:50:57;95898.75;;;29.41;35.79
52797;BME280;38666;43.348;12.584;2022-07-06T08:53:24;95896.84;;;29.55;35.40
52797;BME280;38666;43.348;12.584;2022-07-06T08:55:50;95896.84;;;29.61;35.18
52797;BME280;38666;43.348;12.584;2022-07-06T08:58:16;95894.97;;;29.70;35.97
52797;BME280;38666;43.348;12.584;2022-07-06T09:00:41;95891.81;;;29.79;35.48
52797;BME280;38666;43.348;12.584;2022-07-06T09:03:08;95885.38;;;29.53;36.06
52797;BME280;38666;43.348;12.584;2022-07-06T09:05:36;95881.41;;;29.37;36.23
52797;BME280;38666;43.348;12.584;2022-07-06T09:08:02;95887.66;;;29.86;34.65
52797;BME280;38666;43.348;12.584;2022-07-06T09:10:28;95886.50;;;29.75;34.86
52797;BME280;38666;43.348;12.584;2022-07-06T09:13:01;95885.84;;;29.88;34.64
52797;BME280;38666;43.348;12.584;2022-07-06T09:15:27;95884.91;;;29.80;35.04
52797;BME280;38666;43.348;12.584;2022-07-06T09:17:55;95886.28;;;29.67;35.98
52797;BME280;38666;43.348;12.584;2022-07-06T09:20:20;95877.28;;;29.75;35.06
52797;BME280;38666;43.348;12.584;2022-07-06T09:22:46;95876.88;;;30.15;34.73
52797;BME280;38666;43.348;12.584;2022-07-06T09:25:14;95874.97;;;30.04;34.50
52797;BME280;38666;43.348;12.584;2022-07-06T09:27:42;95877.41;;;30.13;33.99
52797;BME280;38666;43.348;12.584;2022-07-06T09:30:10;95885.03;;;30.44;33.86
52797;BME280;38666;43.348;12.584;2022-07-06T09:32:44;95883.91;;;30.27;34.67
52797;BME280;38666;43.348;12.584;2022-07-06T09:35:26;95877.31;;;30.25;35.02
52797;BME280;38666;43.348;12.584;2022-07-06T09:38:03;95877.09;;;30.42;35.03
52797;BME280;38666;43.348;12.584;2022-07-06T09:40:43;95878.41;;;30.60;34.15
52797;BME280;38666;43.348;12.584;2022-07-06T09:45:39;95858.75;;;30.74;33.90
52797;BME280;38666;43.348;12.584;2022-07-06T09:48:10;95855.03;;;31.04;32.64
52797;BME280;38666;43.348;12.584;2022-07-06T09:50:43;95863.56;;;31.18;32.13
52797;BME280;38666;43.348;12.584;2022-07-06T09:53:09;95857.81;;;30.91;33.83
52797;BME280;38666;43.348;12.584;2022-07-06T09:55:35;95859.19;;;30.84;32.95
52797;BME280;38666;43.348;12.584;2022-07-06T09:58:01;95850.31;;;30.93;33.42
52797;BME280;38666;43.348;12.584;2022-07-06T10:00:26;95854.44;;;30.92;32.31
52797;BME280;38666;43.348;12.584;2022-07-06T10:02:52;95850.31;;;30.93;33.14
52797;BME280;38666;43.348;12.584;2022-07-06T10:05:21;95861.38;;;31.10;32.75
52797;BME280;38666;43.348;12.584;2022-07-06T10:07:52;95855.13;;;31.31;32.27
52797;BME280;38666;43.348;12.584;2022-07-06T10:10:21;95854.22;;;31.42;31.68
52797;BME280;38666;43.348;12.584;2022-07-06T10:12:49;95850.78;;;31.63;32.24
52797;BME280;38666;43.348;12.584;2022-07-06T10:15:16;95847.00;;;31.61;31.84
52797;BME280;38666;43.348;12.584;2022-07-06T10:17:43;95853.19;;;31.73;30.72
52797;BME280;38666;43.348;12.584;2022-07-06T10:20:11;95853.53;;;31.82;30.36
52797;BME280;38666;43.348;12.584;2022-07-06T10:22:38;95847.69;;;31.80;31.11
52797;BME280;38666;43.348;12.584;2022-07-06T10:25:05;95866.06;;;32.28;30.20
52797;BME280;38666;43.348;12.584;2022-07-06T10:27:32;95859.44;;;32.66;29.96
52797;BME280;38666;43.348;12.584;2022-07-06T10:29:58;95852.72;;;32.28;30.18
52797;BME280;38666;43.348;12.584;2022-07-06T10:32:24;95848.03;;;32.58;29.82
52797;BME280;38666;43.348;12.584;2022-07-06T10:34:50;95842.50;;;32.39;30.65
52797;BME280;38666;43.348;12.584;2022-07-06T10:37:26;95846.50;;;32.92;29.80
52797;BME280;38666;43.348;12.584;2022-07-06T10:39:52;95843.47;;;33.25;29.08
52797;BME280;38666;43.348;12.584;2022-07-06T10:42:47;95842.50;;;33.44;28.67
52797;BME280;38666;43.348;12.584;2022-07-06T10:50:46;95850.31;;;33.72;29.25
52797;BME280;38666;43.348;12.584;2022-07-06T10:53:14;95851.22;;;33.96;29.23
52797;BME280;38666;43.348;12.584;2022-07-06T10:55:42;95846.97;;;33.82;29.81
52797;BME280;38666;43.348;12.584;2022-07-06T10:58:09;95859.94;;;33.56;31.28
52797;BME280;38666;43.348;12.584;2022-07-06T11:00:52;95846.72;;;33.29;32.27
52797;BME280;38666;43.348;12.584;2022-07-06T11:03:44;95855.81;;;33.14;32.58
52797;BME280;38666;43.348;12.584;2022-07-06T11:08:55;95844.66;;;33.30;31.98
52797;BME280;38666;43.348;12.584;2022-07-06T11:13:49;95858.06;;;32.81;34.29
52797;BME280;38666;43.348;12.584;2022-07-06T11:16:16;95858.22;;;32.34;35.09
52797;BME280;38666;43.348;12.584;2022-07-06T11:18:49;95861.28;;;30.58;36.23
52797;BME280;38666;43.348;12.584;2022-07-06T11:21:19;95850.19;;;30.66;36.32
52797;BME280;38666;43.348;12.584;2022-07-06T11:23:46;95842.94;;;30.90;36.56
52797;BME280;38666;43.348;12.584;2022-07-06T11:26:13;95847.91;;;30.64;36.64
52797;BME280;38666;43.348;12.584;2022-07-06T11:28:39;95849.69;;;31.20;36.69
52797;BME280;38666;43.348;12.584;2022-07-06T11:31:05;95855.28;;;31.86;35.75
52797;BME280;38666;43.348;12.584;2022-07-06T11:33:31;95846.72;;;32.46;34.21
52797;BME280;38666;43.348;12.584;2022-07-06T11:38:41;95836.41;;;33.82;32.08
52797;BME280;38666;43.348;12.584;2022-07-06T11:41:07;95841.22;;;33.95;30.87
52797;BME280;38666;43.348;12.584;2022-07-06T11:43:33;95811.97;;;33.50;31.68
52797;BME280;38666;43.348;12.584;2022-07-06T11:45:59;95827.00;;;33.87;30.37
52797;BME280;38666;43.348;12.584;2022-07-06T11:48:24;95816.84;;;33.92;30.09
52797;BME280;38666;43.348;12.584;2022-07-06T11:51:00;95828.38;;;34.23;29.23
52797;BME280;38666;43.348;12.584;2022-07-06T11:53:26;95810.34;;;33.55;30.49
52797;BME280;38666;43.348;12.584;2022-07-06T11:55:52;95802.84;;;33.86;30.59
52797;BME280;38666;43.348;12.584;2022-07-06T11:58:22;95811.41;;;34.02;30.54
52797;BME280;38666;43.348;12.584;2022-07-06T12:01:05;95824.13;;;34.99;29.18
52797;BME280;38666;43.348;12.584;2022-07-06T12:03:31;95817.84;;;34.92;29.67
52797;BME280;38666;43.348;12.584;2022-07-06T12:05:58;95814.06;;;34.98;29.02
52797;BME280;38666;43.348;12.584;2022-07-06T12:08:24;95847.69;;;34.33;32.41
52797;BME280;38666;43.348;12.584;2022-07-06T12:10:50;95852.50;;;34.54;31.79
52797;BME280;38666;43.348;12.584;2022-07-06T12:13:15;95854.59;;;33.95;33.22
52797;BME280;38666;43.348;12.584;2022-07-06T12:15:40;95872.31;;;33.23;34.52
52797;BME280;38666;43.348;12.584;2022-07-06T12:18:06;95867.66;;;33.12;34.17
52797;BME280;38666;43.348;12.584;2022-07-06T12:20:31;95843.81;;;32.86;34.58
52797;BME280;38666;43.348;12.584;2022-07-06T12:23:04;95832.59;;;32.94;34.26
52797;BME280;38666;43.348;12.584;2022-07-06T12:25:35;95822.25;;;32.97;33.28
52797;BME280;38666;43.348;12.584;2022-07-06T12:28:02;95823.38;;;33.15;33.35
52797;BME280;38666;43.348;12.584;2022-07-06T12:30:27;95858.94;;;32.89;33.45
52797;BME280;38666;43.348;12.584;2022-07-06T12:33:15;95845.03;;;31.55;35.56
52797;BME280;38666;43.348;12.584;2022-07-06T12:35:41;95841.72;;;30.47;38.34
52797;BME280;38666;43.348;12.584;2022-07-06T12:38:08;95842.09;;;30.37;38.91
52797;BME280;38666;43.348;12.584;2022-07-06T12:40:35;95836.97;;;29.30;41.50
52797;BME280;38666;43.348;12.584;2022-07-06T12:43:01;95834.69;;;29.59;41.26
52797;BME280;38666;43.348;12.584;2022-07-06T12:45:28;95846.16;;;29.00;42.66
52797;BME280;38666;43.348;12.584;2022-07-06T12:50:38;95834.59;;;28.67;42.72
52797;BME280;38666;43.348;12.584;2022-07-06T12:53:05;95826.09;;;28.72;41.45
52797;BME280;38666;43.348;12.584;2022-07-06T12:55:31;95812.47;;;28.46;41.52
52797;BME280;38666;43.348;12.584;2022-07-06T12:57:58;95820.75;;;28.15;41.29
52797;BME280;38666;43.348;12.584;2022-07-06T13:00:24;95837.91;;;27.65;42.09
52797;BME280;38666;43.348;12.584;2022-07-06T13:02:53;95841.25;;;27.64;42.16
52797;BME280;38666;43.348;12.584;2022-07-06T13:05:23;95832.84;;;27.75;41.34
52797;BME280;38666;43.348;12.584;2022-07-06T13:07:57;95836.69;;;27.72;40.87
52797;BME280;38666;43.348;12.584;2022-07-06T13:10:23;95816.81;;;27.47;40.95
52797;BME280;38666;43.348;12.584;2022-07-06T13:12:50;95840.53;;;27.40;41.42
52797;BME280;38666;43.348;12.584;2022-07-06T13:15:16;95872.34;;;27.20;41.62
52797;BME280;38666;43.348;12.584;2022-07-06T13:17:42;95884.50;;;26.83;43.10
52797;BME280;38666;43.348;12.584;2022-07-06T13:20:11;95872.06;;;27.01;43.53
52797;BME280;38666;43.348;12.584;2022-07-06T13:22:37;95863.59;;;26.72;44.44
52797;BME280;38666;43.348;12.584;2022-07-06T13:25:03;95860.25;;;26.56;45.59
52797;BME280;38666;43.348;12.584;2022-07-06T13:27:29;95873.50;;;26.73;46.56
52797;BME280;38666;43.348;12.584;2022-07-06T13:29:55;95883.91;;;26.55;47.93
52797;BME280;38666;43.348;12.584;2022-07-06T13:32:20;95878.78;;;26.48;48.08
52797;BME280;38666;43.348;12.584;2022-07-06T13:34:47;95875.44;;;26.38;48.06
52797;BME280;38666;43.348;12.584;2022-07-06T13:37:12;95871.38;;;26.39;47.79
52797;BME280;38666;43.348;12.584;2022-07-06T13:39:38;95865.25;;;26.35;47.59
52797;BME280;38666;43.348;12.584;2022-07-06T13:42:03;95872.22;;;26.63;47.27
52797;BME280;38666;43.348;12.584;2022-07-06T13:44:29;95859.50;;;26.73;46.99
52797;BME280;38666;43.348;12.584;2022-07-06T13:46:55;95852.94;;;26.88;46.13
52797;BME280;38666;43.348;12.584;2022-07-06T13:49:20;95854.53;;;27.23;45.29
52797;BME280;38666;43.348;12.584;2022-07-06T13:51:46;95849.94;;;27.55;45.45
52797;BME280;38666;43.348;12.584;2022-07-06T13:54:12;95824.22;;;28.44;43.70
52797;BME280;38666;43.348;12.584;2022-07-06T13:56:39;95818.03;;;28.94;43.08
52797;BME280;38666;43.348;12.584;2022-07-06T13:59:06;95811.59;;;29.41;41.97
52797;BME280;38666;43.348;12.584;2022-07-06T14:01:32;95819.44;;;30.24;39.94
52797;BME280;38666;43.348;12.584;2022-07-06T14:03:57;95808.72;;;30.80;39.00
52797;BME280;38666;43.348;12.584;2022-07-06T14:06:23;95821.22;;;31.04;38.22
52797;BME280;38666;43.348;12.584;2022-07-06T14:08:48;95826.16;;;31.50;37.30
52797;BME280;38666;43.348;12.584;2022-07-06T14:11:14;95814.81;;;31.36;38.09
52797;BME280;38666;43.348;12.584;2022-07-06T14:13:40;95812.91;;;31.12;39.33
52797;BME280;38666;43.348;12.584;2022-07-06T14:16:06;95809.94;;;31.04;39.66
52797;BME280;38666;43.348;12.584;2022-07-06T14:18:32;95791.16;;;30.55;40.85
52797;BME280;38666;43.348;12.584;2022-07-06T14:20:58;95818.28;;;30.13;42.26
52797;BME280;38666;43.348;12.584;2022-07-06T14:23:25;95813.00;;;30.29;41.92
52797;BME280;38666;43.348;12.584;2022-07-06T14:25:50;95807.53;;;30.37;41.92
52797;BME280;38666;43.348;12.584;2022-07-06T14:28:17;95814.84;;;30.46;41.65
52797;BME280;38666;43.348;12.584;2022-07-06T14:30:43;95809.81;;;30.96;40.29
52797;BME280;38666;43.348;12.584;2022-07-06T14:33:10;95805.56;;;30.90;40.37
52797;BME280;38666;43.348;12.584;2022-07-06T14:35:41;95803.41;;;31.29;39.64
52797;BME280;38666;43.348;12.584;2022-07-06T14:38:07;95804.22;;;31.43;38.78
52797;BME280;38666;43.348;12.584;2022-07-06T14:40:34;95808.19;;;31.34;38.76
52797;BME280;38666;43.348;12.584;2022-07-06T14:43:00;95793.13;;;31.45;38.17
52797;BME280;38666;43.348;12.584;2022-07-06T14:45:26;95787.44;;;31.31;38.44
52797;BME280;38666;43.348;12.584;2022-07-06T14:47:51;95790.31;;;31.45;37.87
52797;BME280;38666;43.348;12.584;2022-07-06T14:50:17;95783.44;;;31.40;37.79
52797;BME280;38666;43.348;12.584;2022-07-06T14:52:43;95767.28;;;31.41;38.06
52797;BME280;38666;43.348;12.584;2022-07-06T14:55:08;95772.16;;;31.40;38.45
52797;BME280;38666;43.348;12.584;2022-07-06T14:57:34;95776.47;;;31.61;37.81
52797;BME280;38666;43.348;12.584;2022-07-06T14:59:59;95773.03;;;31.35;38.58
52797;BME280;38666;43.348;12.584;2022-07-06T15:02:25;95775.44;;;30.98;38.96
52797;BME280;38666;43.348;12.584;2022-07-06T15:04:50;95768.75;;;31.61;37.56
52797;BME280;38666;43.348;12.584;2022-07-06T15:07:16;95767.94;;;31.00;38.41
52797;BME280;38666;43.348;12.584;2022-07-06T15:09:42;95778.44;;;30.86;38.46
52797;BME280;38666;43.348;12.584;2022-07-06T15:12:08;95770.06;;;31.27;36.84
52797;BME280;38666;43.348;12.584;2022-07-06T15:14:33;95758.22;;;31.48;36.59
52797;BME280;38666;43.348;12.584;2022-07-06T15:16:59;95756.97;;;31.16;37.25
52797;BME280;38666;43.348;12.584;2022-07-06T15:19:24;95739.34;;;31.10;37.46
52797;BME280;38666;43.348;12.584;2022-07-06T15:21:56;95732.44;;;31.24;37.07
52797;BME280;38666;43.348;12.584;2022-07-06T15:24:22;95740.78;;;31.17;36.84
52797;BME280;38666;43.348;12.584;2022-07-06T15:26:50;95740.38;;;31.26;37.10
52797;BME280;38666;43.348;12.584;2022-07-06T15:29:15;95751.28;;;31.76;35.94
52797;BME280;38666;43.348;12.584;2022-07-06T15:31:41;95747.34;;;31.52;35.94
52797;BME280;38666;43.348;12.584;2022-07-06T15:34:06;95756.66;;;31.33;36.62
52797;BME280;38666;43.348;12.584;2022-07-06T15:36:32;95756.16;;;30.50;38.03
52797;BME280;38666;43.348;12.584;2022-07-06T15:38:57;95762.44;;;30.95;37.51
52797;BME280;38666;43.348;12.584;2022-07-06T15:41:23;95759.13;;;31.23;36.37
52797;BME280;38666;43.348;12.584;2022-07-06T15:43:48;95758.16;;;31.21;36.78
52797;BME280;38666;43.348;12.584;2022-07-06T15:46:14;95755.13;;;30.86;37.52
52797;BME280;38666;43.348;12.584;2022-07-06T15:48:39;95766.66;;;31.02;37.46
52797;BME280;38666;43.348;12.584;2022-07-06T15:51:05;95751.03;;;31.00;36.63
52797;BME280;38666;43.348;12.584;2022-07-06T15:53:31;95749.63;;;30.94;36.87
52797;BME280;38666;43.348;12.584;2022-07-06T15:55:58;95737.91;;;30.90;37.01
52797;BME280;38666;43.348;12.584;2022-07-06T15:58:24;95744.19;;;30.82;36.84
52797;BME280;38666;43.348;12.584;2022-07-06T16:00:50;95739.91;;;30.56;37.57
52797;BME280;38666;43.348;12.584;2022-07-06T16:03:15;95751.59;;;30.47;37.66
52797;BME280;38666;43.348;12.584;2022-07-06T16:05:41;95750.00;;;30.32;37.60
52797;BME280;38666;43.348;12.584;2022-07-06T16:08:06;95757.56;;;30.18;37.67
52797;BME280;38666;43.348;12.584;2022-07-06T16:10:32;95751.13;;;29.79;38.60
52797;BME280;38666;43.348;12.584;2022-07-06T16:12:58;95750.56;;;30.06;37.77
52797;BME280;38666;43.348;12.584;2022-07-06T16:15:24;95754.66;;;30.04;37.53
52797;BME280;38666;43.348;12.584;2022-07-06T16:17:49;95752.59;;;30.05;37.38
52797;BME280;38666;43.348;12.584;2022-07-06T16:20:16;95750.34;;;30.03;37.42
52797;BME280;38666;43.348;12.584;2022-07-06T16:22:43;95754.16;;;29.81;37.07
52797;BME280;38666;43.348;12.584;2022-07-06T16:25:09;95761.56;;;29.59;37.67
52797;BME280;38666;43.348;12.584;2022-07-06T16:27:35;95754.69;;;29.54;37.28
52797;BME280;38666;43.348;12.584;2022-07-06T16:30:03;95756.16;;;29.36;38.10
52797;BME280;38666;43.348;12.584;2022-07-06T16:32:28;95740.78;;;29.12;38.42
52797;BME280;38666;43.348;12.584;2022-07-06T16:34:58;95754.53;;;29.16;38.21
52797;BME280;38666;43.348;12.584;2022-07-06T16:37:23;95767.09;;;29.15;38.85
52797;BME280;38666;43.348;12.584;2022-07-06T16:39:49;95750.84;;;29.02;38.75
52797;BME280;38666;43.348;12.584;2022-07-06T16:42:15;95759.22;;;29.07;38.52
52797;BME280;38666;43.348;12.584;2022-07-06T16:44:43;95747.16;;;28.76;39.30
52797;BME280;38666;43.348;12.584;2022-07-06T16:47:08;95756.13;;;28.75;39.98
52797;BME280;38666;43.348;12.584;2022-07-06T16:49:34;95762.22;;;28.79;39.79
52797;BME280;38666;43.348;12.584;2022-07-06T16:51:59;95755.03;;;28.83;39.45
52797;BME280;38666;43.348;12.584;2022-07-06T16:54:24;95758.22;;;28.68;40.36
52797;BME280;38666;43.348;12.584;2022-07-06T16:56:50;95750.03;;;28.70;40.36
52797;BME280;38666;43.348;12.584;2022-07-06T16:59:16;95754.84;;;28.76;40.31
52797;BME280;38666;43.348;12.584;2022-07-06T17:01:41;95739.81;;;28.67;40.36
52797;BME280;38666;43.348;12.584;2022-07-06T17:04:11;95740.66;;;28.56;40.81
52797;BME280;38666;43.348;12.584;2022-07-06T17:06:36;95742.56;;;28.79;40.30
52797;BME280;38666;43.348;12.584;2022-07-06T17:09:02;95741.75;;;28.84;40.23
52797;BME280;38666;43.348;12.584;2022-07-06T17:11:30;95742.72;;;28.56;40.87
52797;BME280;38666;43.348;12.584;2022-07-06T17:13:56;95747.53;;;28.61;40.53
52797;BME280;38666;43.348;12.584;2022-07-06T17:16:22;95740.56;;;28.31;41.60
52797;BME280;38666;43.348;12.584;2022-07-06T17:18:48;95747.19;;;28.28;41.24
52797;BME280;38666;43.348;12.584;2022-07-06T17:21:13;95744.31;;;27.92;41.93
52797;BME280;38666;43.348;12.584;2022-07-06T17:23:39;95746.31;;;28.03;41.83
52797;BME280;38666;43.348;12.584;2022-07-06T17:26:04;95748.16;;;27.88;42.18
52797;BME280;38666;43.348;12.584;2022-07-06T17:28:30;95753.81;;;27.71;42.37
52797;BME280;38666;43.348;12.584;2022-07-06T17:30:56;95743.34;;;27.72;42.54
52797;BME280;38666;43.348;12.584;2022-07-06T17:33:22;95746.19;;;27.55;42.50
52797;BME280;38666;43.348;12.584;2022-07-06T17:35:47;95742.91;;;27.33;42.69
52797;BME280;38666;43.348;12.584;2022-07-06T17:38:13;95737.03;;;27.43;42.70
52797;BME280;38666;43.348;12.584;2022-07-06T17:40:41;95743.41;;;27.43;42.96
52797;BME280;38666;43.348;12.584;2022-07-06T17:43:08;95745.47;;;27.37;43.05
52797;BME280;38666;43.348;12.584;2022-07-06T17:45:34;95749.28;;;27.39;43.13
52797;BME280;38666;43.348;12.584;2022-07-06T17:48:00;95756.13;;;27.56;42.40
52797;BME280;38666;43.348;12.584;2022-07-06T17:50:26;95749.53;;;27.47;42.43
52797;BME280;38666;43.348;12.584;2022-07-06T17:52:53;95743.16;;;26.95;43.79
52797;BME280;38666;43.348;12.584;2022-07-06T17:55:18;95754.63;;;26.97;43.75
52797;BME280;38666;43.348;12.584;2022-07-06T17:57:44;95747.50;;;26.96;43.71
52797;BME280;38666;43.348;12.584;2022-07-06T18:00:10;95749.56;;;27.13;43.00
52797;BME280;38666;43.348;12.584;2022-07-06T18:02:36;95745.97;;;26.95;43.20
52797;BME280;38666;43.348;12.584;2022-07-06T18:05:02;95743.41;;;26.86;43.15
52797;BME280;38666;43.348;12.584;2022-07-06T18:07:28;95738.31;;;26.55;43.37
52797;BME280;38666;43.348;12.584;2022-07-06T18:09:53;95736.25;;;26.50;43.44
52797;BME280;38666;43.348;12.584;2022-07-06T18:12:22;95732.22;;;26.63;42.92
52797;BME280;38666;43.348;12.584;2022-07-06T18:14:48;95736.53;;;26.58;42.61
52797;BME280;38666;43.348;12.584;2022-07-06T18:17:14;95729.41;;;26.46;42.00
52797;BME280;38666;43.348;12.584;2022-07-06T18:19:47;95732.19;;;26.46;41.87
52797;BME280;38666;43.348;12.584;2022-07-06T18:22:12;95732.22;;;26.51;41.27
52797;BME280;38666;43.348;12.584;2022-07-06T18:25:05;95740.31;;;26.38;41.01
52797;BME280;38666;43.348;12.584;2022-07-06T18:27:30;95726.34;;;26.49;40.88
52797;BME280;38666;43.348;12.584;2022-07-06T18:29:58;95743.34;;;26.28;40.94
52797;BME280;38666;43.348;12.584;2022-07-06T18:32:24;95747.97;;;26.43;40.64
52797;BME280;38666;43.348;12.584;2022-07-06T18:34:51;95737.94;;;26.13;40.95
52797;BME280;38666;43.348;12.584;2022-07-06T18:37:18;95740.97;;;26.09;41.28
52797;BME280;38666;43.348;12.584;2022-07-06T18:39:44;95759.78;;;26.09;41.20
52797;BME280;38666;43.348;12.584;2022-07-06T18:42:09;95749.06;;;25.90;41.13
52797;BME280;38666;43.348;12.584;2022-07-06T18:44:35;95753.38;;;25.86;40.74
52797;BME280;38666;43.348;12.584;2022-07-06T18:47:00;95744.88;;;25.68;41.53
52797;BME280;38666;43.348;12.584;2022-07-06T18:49:27;95748.72;;;25.71;41.52
52797;BME280;38666;43.348;12.584;2022-07-06T18:51:53;95745.31;;;25.55;41.92
